sensor_id;sensor_type;location;lat;lon;timestamp;pressure;altitude;pressure_sealevel;temperature;humidity
58879;BME280;44660;42.664;23.266;2023-02-07T00:00:58;95780.88;;;-4.19;56.70
58879;BME280;44660;42.664;23.266;2023-02-07T00:03:24;95823.19;;;-3.73;56.34
58879;BME280;44660;42.664;23.266;2023-02-07T00:05:49;95853.25;;;-3.48;56.18
58879;BME280;44660;42.664;23.266;2023-02-07T00:08:15;95851.66;;;-3.61;56.32
58879;BME280;44660;42.664;23.266;2023-02-07T00:10:41;95832.66;;;-3.84;56.38
58879;BME280;44660;42.664;23.266;2023-02-07T00:13:07;95827.41;;;-4.05;56.93
58879;BME280;44660;42.664;23.266;2023-02-07T00:15:32;95860.41;;;-3.73;56.81
58879;BME280;44660;42.664;23.266;2023-02-07T00:17:58;95850.19;;;-3.86;56.95
58879;BME280;44660;42.664;23.266;2023-02-07T00:20:23;95849.47;;;-3.88;56.76
58879;BME280;44660;42.664;23.266;2023-02-07T00:22:49;95807.22;;;-4.13;56.76
58879;BME280;44660;42.664;23.266;2023-02-07T00:25:15;95811.56;;;-4.02;56.99
58879;BME280;44660;42.664;23.266;2023-02-07T00:27:40;95864.66;;;-3.61;56.75
58879;BME280;44660;42.664;23.266;2023-02-07T00:30:06;95854.00;;;-3.57;56.30
58879;BME280;44660;42.664;23.266;2023-02-07T00:32:33;95862.34;;;-3.42;56.49
58879;BME280;44660;42.664;23.266;2023-02-07T00:34:59;95818.81;;;-3.73;56.06
58879;BME280;44660;42.664;23.266;2023-02-07T00:37:25;95865.31;;;-3.47;56.22
58879;BME280;44660;42.664;23.266;2023-02-07T00:39:51;95869.97;;;-3.73;57.08
58879;BME280;44660;42.664;23.266;2023-02-07T00:42:16;95882.56;;;-3.46;56.69
58879;BME280;44660;42.664;23.266;2023-02-07T00:44:42;95883.53;;;-3.58;56.91
58879;BME280;44660;42.664;23.266;2023-02-07T00:47:07;95856.38;;;-3.66;56.96
58879;BME280;44660;42.664;23.266;2023-02-07T00:49:33;95850.69;;;-3.59;56.89
58879;BME280;44660;42.664;23.266;2023-02-07T00:51:58;95889.34;;;-3.22;56.86
58879;BME280;44660;42.664;23.266;2023-02-07T00:54:24;95830.25;;;-3.64;56.43
58879;BME280;44660;42.664;23.266;2023-02-07T00:56:49;95853.72;;;-3.54;56.40
58879;BME280;44660;42.664;23.266;2023-02-07T00:59:14;95863.00;;;-3.62;56.36
58879;BME280;44660;42.664;23.266;2023-02-07T01:01:40;95834.31;;;-3.83;56.65
58879;BME280;44660;42.664;23.266;2023-02-07T01:04:06;95882.78;;;-3.49;56.89
58879;BME280;44660;42.664;23.266;2023-02-07T01:06:31;95848.25;;;-3.84;57.28
58879;BME280;44660;42.664;23.266;2023-02-07T01:08:59;95875.72;;;-3.47;57.21
58879;BME280;44660;42.664;23.266;2023-02-07T01:11:26;95870.31;;;-3.55;56.96
58879;BME280;44660;42.664;23.266;2023-02-07T01:13:52;95878.53;;;-3.39;56.67
58879;BME280;44660;42.664;23.266;2023-02-07T01:16:25;95878.50;;;-3.28;56.37
58879;BME280;44660;42.664;23.266;2023-02-07T01:18:51;95831.03;;;-3.52;56.56
58879;BME280;44660;42.664;23.266;2023-02-07T01:21:22;95855.22;;;-3.40;56.49
58879;BME280;44660;42.664;23.266;2023-02-07T01:23:48;95861.22;;;-3.29;56.71
58879;BME280;44660;42.664;23.266;2023-02-07T01:26:14;95819.91;;;-3.75;56.97
58879;BME280;44660;42.664;23.266;2023-02-07T01:28:39;95807.16;;;-3.90;56.55
58879;BME280;44660;42.664;23.266;2023-02-07T01:31:10;95852.13;;;-3.67;57.05
58879;BME280;44660;42.664;23.266;2023-02-07T01:33:36;95852.16;;;-3.46;57.01
58879;BME280;44660;42.664;23.266;2023-02-07T01:36:11;95845.66;;;-3.40;56.96
58879;BME280;44660;42.664;23.266;2023-02-07T01:38:37;95856.47;;;-3.23;56.91
58879;BME280;44660;42.664;23.266;2023-02-07T01:41:02;95854.50;;;-3.31;56.73
58879;BME280;44660;42.664;23.266;2023-02-07T01:43:28;95840.75;;;-3.66;57.14
58879;BME280;44660;42.664;23.266;2023-02-07T01:45:54;95852.41;;;-3.92;57.79
58879;BME280;44660;42.664;23.266;2023-02-07T01:48:22;95844.28;;;-3.99;58.14
58879;BME280;44660;42.664;23.266;2023-02-07T01:50:50;95731.13;;;-4.81;58.26
58879;BME280;44660;42.664;23.266;2023-02-07T01:53:21;95858.91;;;-3.87;58.03
58879;BME280;44660;42.664;23.266;2023-02-07T01:55:51;95852.84;;;-3.76;57.82
58879;BME280;44660;42.664;23.266;2023-02-07T01:58:17;95855.69;;;-3.79;58.09
58879;BME280;44660;42.664;23.266;2023-02-07T02:00:43;95850.47;;;-3.68;57.83
58879;BME280;44660;42.664;23.266;2023-02-07T02:03:09;95846.81;;;-3.65;57.58
58879;BME280;44660;42.664;23.266;2023-02-07T02:05:35;95811.22;;;-4.08;57.92
58879;BME280;44660;42.664;23.266;2023-02-07T02:08:01;95848.03;;;-3.81;57.92
58879;BME280;44660;42.664;23.266;2023-02-07T02:13:41;95838.22;;;-3.77;58.06
58879;BME280;44660;42.664;23.266;2023-02-07T02:26:58;95859.50;;;-3.83;58.34
58879;BME280;44660;42.664;23.266;2023-02-07T02:36:27;95863.16;;;-3.74;57.42
58879;BME280;44660;42.664;23.266;2023-02-07T02:38:44;95868.00;;;-3.81;57.44
58879;BME280;44660;42.664;23.266;2023-02-07T02:41:30;95769.94;;;-4.34;57.53
58879;BME280;44660;42.664;23.266;2023-02-07T02:44:14;95834.47;;;-3.96;57.58
58879;BME280;44660;42.664;23.266;2023-02-07T02:46:43;95873.41;;;-3.62;57.36
58879;BME280;44660;42.664;23.266;2023-02-07T02:49:12;95843.91;;;-3.83;57.43
58879;BME280;44660;42.664;23.266;2023-02-07T02:51:39;95809.19;;;-3.94;57.43
58879;BME280;44660;42.664;23.266;2023-02-07T02:54:28;95868.38;;;-3.53;57.02
58879;BME280;44660;42.664;23.266;2023-02-07T03:07:51;95887.03;;;-3.37;57.11
58879;BME280;44660;42.664;23.266;2023-02-07T03:20:47;95874.53;;;-3.54;56.96
58879;BME280;44660;42.664;23.266;2023-02-07T03:23:15;95860.84;;;-3.56;56.76
58879;BME280;44660;42.664;23.266;2023-02-07T03:25:43;95882.56;;;-3.46;56.98
58879;BME280;44660;42.664;23.266;2023-02-07T03:28:11;95791.09;;;-3.95;56.95
58879;BME280;44660;42.664;23.266;2023-02-07T03:30:38;95836.03;;;-3.61;56.32
58879;BME280;44660;42.664;23.266;2023-02-07T03:33:07;95861.94;;;-3.38;56.04
58879;BME280;44660;42.664;23.266;2023-02-07T03:38:04;95826.63;;;-3.73;55.84
58879;BME280;44660;42.664;23.266;2023-02-07T03:40:44;95848.09;;;-3.71;56.20
58879;BME280;44660;42.664;23.266;2023-02-07T03:43:12;95887.50;;;-3.43;56.42
58879;BME280;44660;42.664;23.266;2023-02-07T03:45:39;95873.38;;;-3.50;56.59
58879;BME280;44660;42.664;23.266;2023-02-07T03:48:05;95885.63;;;-3.41;56.04
58879;BME280;44660;42.664;23.266;2023-02-07T03:50:31;95863.97;;;-3.74;56.14
58879;BME280;44660;42.664;23.266;2023-02-07T03:52:56;95884.97;;;-3.66;56.23
58879;BME280;44660;42.664;23.266;2023-02-07T03:55:22;95850.28;;;-3.87;56.26
58879;BME280;44660;42.664;23.266;2023-02-07T03:57:47;95857.09;;;-3.75;56.63
58879;BME280;44660;42.664;23.266;2023-02-07T04:00:13;95848.00;;;-3.69;56.50
58879;BME280;44660;42.664;23.266;2023-02-07T04:02:39;95815.06;;;-3.80;56.26
58879;BME280;44660;42.664;23.266;2023-02-07T04:05:05;95882.03;;;-3.29;56.02
58879;BME280;44660;42.664;23.266;2023-02-07T04:07:30;95868.75;;;-3.25;56.06
58879;BME280;44660;42.664;23.266;2023-02-07T04:09:56;95886.13;;;-3.15;56.08
58879;BME280;44660;42.664;23.266;2023-02-07T04:12:21;95835.94;;;-3.38;56.04
58879;BME280;44660;42.664;23.266;2023-02-07T04:14:46;95877.69;;;-3.07;55.72
58879;BME280;44660;42.664;23.266;2023-02-07T04:17:12;95879.44;;;-3.07;55.39
58879;BME280;44660;42.664;23.266;2023-02-07T04:19:37;95884.03;;;-3.00;55.43
58879;BME280;44660;42.664;23.266;2023-02-07T04:22:03;95870.78;;;-2.97;55.16
58879;BME280;44660;42.664;23.266;2023-02-07T04:24:28;95851.91;;;-3.10;54.96
58879;BME280;44660;42.664;23.266;2023-02-07T04:26:59;95854.94;;;-3.05;54.91
58879;BME280;44660;42.664;23.266;2023-02-07T04:29:24;95873.88;;;-2.82;55.11
58879;BME280;44660;42.664;23.266;2023-02-07T04:31:50;95850.13;;;-2.88;54.88
58879;BME280;44660;42.664;23.266;2023-02-07T04:34:15;95858.63;;;-2.86;55.34
58879;BME280;44660;42.664;23.266;2023-02-07T04:36:41;95831.72;;;-3.18;55.48
58879;BME280;44660;42.664;23.266;2023-02-07T04:39:06;95881.63;;;-2.91;54.91
58879;BME280;44660;42.664;23.266;2023-02-07T04:41:31;95882.13;;;-2.98;55.09
58879;BME280;44660;42.664;23.266;2023-02-07T04:43:57;95891.47;;;-2.95;55.17
58879;BME280;44660;42.664;23.266;2023-02-07T04:46:22;95893.63;;;-3.00;55.62
58879;BME280;44660;42.664;23.266;2023-02-07T04:48:48;95851.03;;;-3.32;55.39
58879;BME280;44660;42.664;23.266;2023-02-07T04:51:13;95874.06;;;-3.16;55.09
58879;BME280;44660;42.664;23.266;2023-02-07T04:53:39;95842.31;;;-3.31;55.24
58879;BME280;44660;42.664;23.266;2023-02-07T04:56:05;95874.81;;;-3.04;55.36
58879;BME280;44660;42.664;23.266;2023-02-07T04:58:30;95876.47;;;-3.03;55.10
58879;BME280;44660;42.664;23.266;2023-02-07T05:00:56;95872.84;;;-3.12;55.14
58879;BME280;44660;42.664;23.266;2023-02-07T05:03:21;95904.34;;;-2.93;55.38
58879;BME280;44660;42.664;23.266;2023-02-07T05:05:47;95904.66;;;-3.08;55.66
58879;BME280;44660;42.664;23.266;2023-02-07T05:08:12;95906.59;;;-3.21;56.37
58879;BME280;44660;42.664;23.266;2023-02-07T05:10:39;95920.06;;;-3.16;56.26
58879;BME280;44660;42.664;23.266;2023-02-07T05:13:05;95896.94;;;-3.31;56.57
58879;BME280;44660;42.664;23.266;2023-02-07T05:15:31;95895.28;;;-3.32;56.38
58879;BME280;44660;42.664;23.266;2023-02-07T05:17:57;95856.63;;;-3.69;56.74
58879;BME280;44660;42.664;23.266;2023-02-07T05:20:24;95924.09;;;-3.12;56.89
58879;BME280;44660;42.664;23.266;2023-02-07T05:22:50;95914.63;;;-3.13;56.26
58879;BME280;44660;42.664;23.266;2023-02-07T05:25:16;95905.03;;;-3.13;55.51
58879;BME280;44660;42.664;23.266;2023-02-07T05:27:41;95900.44;;;-3.20;55.08
58879;BME280;44660;42.664;23.266;2023-02-07T05:30:07;95932.88;;;-2.92;55.26
58879;BME280;44660;42.664;23.266;2023-02-07T05:32:33;95884.50;;;-3.27;55.89
58879;BME280;44660;42.664;23.266;2023-02-07T05:35:17;95937.81;;;-3.21;56.32
58879;BME280;44660;42.664;23.266;2023-02-07T05:37:46;95902.88;;;-3.40;56.27
58879;BME280;44660;42.664;23.266;2023-02-07T05:40:11;95933.78;;;-3.14;56.46
58879;BME280;44660;42.664;23.266;2023-02-07T05:42:38;95945.22;;;-3.05;56.73
58879;BME280;44660;42.664;23.266;2023-02-07T05:45:04;95940.34;;;-2.99;56.70
58879;BME280;44660;42.664;23.266;2023-02-07T05:47:30;95956.41;;;-2.93;56.93
58879;BME280;44660;42.664;23.266;2023-02-07T05:49:55;95954.97;;;-2.86;56.74
58879;BME280;44660;42.664;23.266;2023-02-07T05:52:21;95950.72;;;-2.87;56.33
58879;BME280;44660;42.664;23.266;2023-02-07T05:54:53;95936.59;;;-3.06;56.28
58879;BME280;44660;42.664;23.266;2023-02-07T05:57:19;95962.19;;;-2.90;56.58
58879;BME280;44660;42.664;23.266;2023-02-07T05:59:44;95870.31;;;-3.55;56.51
58879;BME280;44660;42.664;23.266;2023-02-07T06:02:10;95951.97;;;-3.03;56.38
58879;BME280;44660;42.664;23.266;2023-02-07T06:04:36;95934.03;;;-3.17;55.52
58879;BME280;44660;42.664;23.266;2023-02-07T06:07:01;95957.63;;;-2.98;55.84
58879;BME280;44660;42.664;23.266;2023-02-07T06:09:27;95944.44;;;-3.17;54.95
58879;BME280;44660;42.664;23.266;2023-02-07T06:11:52;95926.34;;;-3.19;55.09
58879;BME280;44660;42.664;23.266;2023-02-07T06:14:19;95929.53;;;-3.15;54.88
58879;BME280;44660;42.664;23.266;2023-02-07T06:16:45;95964.63;;;-2.98;55.02
58879;BME280;44660;42.664;23.266;2023-02-07T06:19:10;95963.09;;;-3.01;55.34
58879;BME280;44660;42.664;23.266;2023-02-07T06:21:37;95930.72;;;-3.19;55.81
58879;BME280;44660;42.664;23.266;2023-02-07T06:24:03;95926.00;;;-3.25;55.36
58879;BME280;44660;42.664;23.266;2023-02-07T06:26:28;95942.44;;;-3.14;54.97
58879;BME280;44660;42.664;23.266;2023-02-07T06:28:54;95965.44;;;-2.98;55.09
58879;BME280;44660;42.664;23.266;2023-02-07T06:31:19;95913.03;;;-3.37;54.92
58879;BME280;44660;42.664;23.266;2023-02-07T06:33:44;95975.63;;;-2.94;54.49
58879;BME280;44660;42.664;23.266;2023-02-07T06:36:10;95980.56;;;-2.91;54.39
58879;BME280;44660;42.664;23.266;2023-02-07T06:38:35;95993.44;;;-2.90;53.86
58879;BME280;44660;42.664;23.266;2023-02-07T06:41:01;95975.63;;;-2.94;54.46
58879;BME280;44660;42.664;23.266;2023-02-07T06:43:26;95936.25;;;-3.13;54.37
58879;BME280;44660;42.664;23.266;2023-02-07T06:45:51;95973.59;;;-3.02;54.51
58879;BME280;44660;42.664;23.266;2023-02-07T06:48:17;95962.50;;;-3.04;54.93
58879;BME280;44660;42.664;23.266;2023-02-07T06:50:42;95991.84;;;-2.70;54.10
58879;BME280;44660;42.664;23.266;2023-02-07T06:53:08;95992.72;;;-2.59;53.07
58879;BME280;44660;42.664;23.266;2023-02-07T06:55:37;95993.50;;;-2.69;53.01
58879;BME280;44660;42.664;23.266;2023-02-07T06:58:04;95998.69;;;-2.69;52.94
58879;BME280;44660;42.664;23.266;2023-02-07T07:00:30;95903.19;;;-3.22;52.69
58879;BME280;44660;42.664;23.266;2023-02-07T07:02:56;95982.53;;;-2.51;53.09
58879;BME280;44660;42.664;23.266;2023-02-07T07:05:21;95983.78;;;-2.46;52.67
58879;BME280;44660;42.664;23.266;2023-02-07T07:07:47;95988.63;;;-2.41;52.45
58879;BME280;44660;42.664;23.266;2023-02-07T07:10:13;95971.75;;;-2.58;52.16
58879;BME280;44660;42.664;23.266;2023-02-07T07:12:39;95992.75;;;-2.38;52.54
58879;BME280;44660;42.664;23.266;2023-02-07T07:15:05;95999.78;;;-2.50;52.28
58879;BME280;44660;42.664;23.266;2023-02-07T07:17:30;95965.34;;;-2.75;52.34
58879;BME280;44660;42.664;23.266;2023-02-07T07:19:56;95951.97;;;-2.70;52.31
58879;BME280;44660;42.664;23.266;2023-02-07T07:22:23;95974.00;;;-2.53;52.09
58879;BME280;44660;42.664;23.266;2023-02-07T07:24:49;95982.13;;;-2.68;51.92
58879;BME280;44660;42.664;23.266;2023-02-07T07:27:15;95954.38;;;-2.57;51.49
58879;BME280;44660;42.664;23.266;2023-02-07T07:29:40;95974.19;;;-2.24;51.43
58879;BME280;44660;42.664;23.266;2023-02-07T07:32:06;95978.44;;;-2.02;51.17
58879;BME280;44660;42.664;23.266;2023-02-07T07:34:31;95988.00;;;-1.81;50.90
58879;BME280;44660;42.664;23.266;2023-02-07T07:36:59;95985.38;;;-1.81;50.68
58879;BME280;44660;42.664;23.266;2023-02-07T07:39:27;95971.13;;;-1.77;52.24
58879;BME280;44660;42.664;23.266;2023-02-07T07:41:52;95934.91;;;-2.01;50.99
58879;BME280;44660;42.664;23.266;2023-02-07T07:44:17;95938.06;;;-1.76;50.30
58879;BME280;44660;42.664;23.266;2023-02-07T07:46:43;95952.97;;;-1.38;50.48
58879;BME280;44660;42.664;23.266;2023-02-07T07:49:09;95982.31;;;-0.85;49.64
58879;BME280;44660;42.664;23.266;2023-02-07T07:51:34;95934.88;;;-0.90;48.86
58879;BME280;44660;42.664;23.266;2023-02-07T07:54:00;95875.41;;;-0.96;48.26
58879;BME280;44660;42.664;23.266;2023-02-07T07:56:25;95981.69;;;-0.01;46.90
58879;BME280;44660;42.664;23.266;2023-02-07T07:58:53;95961.50;;;0.29;46.61
58879;BME280;44660;42.664;23.266;2023-02-07T08:01:19;95927.66;;;0.74;44.80
58879;BME280;44660;42.664;23.266;2023-02-07T08:03:44;95974.59;;;2.02;42.24
58879;BME280;44660;42.664;23.266;2023-02-07T08:06:10;95964.41;;;3.10;40.31
58879;BME280;44660;42.664;23.266;2023-02-07T08:08:36;95941.28;;;4.45;37.61
58879;BME280;44660;42.664;23.266;2023-02-07T08:11:03;95948.94;;;5.72;34.73
58879;BME280;44660;42.664;23.266;2023-02-07T08:13:29;95952.53;;;8.00;32.27
58879;BME280;44660;42.664;23.266;2023-02-07T08:15:54;95948.03;;;9.95;29.14
58879;BME280;44660;42.664;23.266;2023-02-07T08:18:20;95894.75;;;10.75;27.10
58879;BME280;44660;42.664;23.266;2023-02-07T08:20:48;95926.47;;;10.70;27.40
58879;BME280;44660;42.664;23.266;2023-02-07T08:23:13;95953.34;;;8.99;28.59
58879;BME280;44660;42.664;23.266;2023-02-07T08:25:40;95941.22;;;8.83;29.44
58879;BME280;44660;42.664;23.266;2023-02-07T08:28:06;95948.81;;;9.48;29.37
58879;BME280;44660;42.664;23.266;2023-02-07T08:30:32;95939.63;;;8.82;29.28
58879;BME280;44660;42.664;23.266;2023-02-07T08:32:57;95930.56;;;8.35;29.83
58879;BME280;44660;42.664;23.266;2023-02-07T08:35:22;95905.19;;;7.91;30.78
58879;BME280;44660;42.664;23.266;2023-02-07T08:37:48;95940.09;;;7.51;30.81
58879;BME280;44660;42.664;23.266;2023-02-07T08:40:14;95928.53;;;6.79;31.49
58879;BME280;44660;42.664;23.266;2023-02-07T08:42:40;95950.91;;;6.46;32.53
58879;BME280;44660;42.664;23.266;2023-02-07T08:45:06;95926.47;;;6.44;32.75
58879;BME280;44660;42.664;23.266;2023-02-07T08:47:31;95912.25;;;8.75;29.98
58879;BME280;44660;42.664;23.266;2023-02-07T08:49:57;95924.69;;;10.37;27.97
58879;BME280;44660;42.664;23.266;2023-02-07T08:52:23;95858.63;;;11.32;26.20
58879;BME280;44660;42.664;23.266;2023-02-07T08:54:48;95902.69;;;11.27;26.67
58879;BME280;44660;42.664;23.266;2023-02-07T08:57:14;95941.69;;;10.43;26.85
58879;BME280;44660;42.664;23.266;2023-02-07T08:59:40;95955.38;;;9.86;27.75
58879;BME280;44660;42.664;23.266;2023-02-07T09:02:06;95881.34;;;9.23;28.04
58879;BME280;44660;42.664;23.266;2023-02-07T09:04:31;95952.47;;;9.47;27.99
58879;BME280;44660;42.664;23.266;2023-02-07T09:06:57;95956.56;;;9.63;27.73
58879;BME280;44660;42.664;23.266;2023-02-07T09:09:22;95942.75;;;8.99;28.11
58879;BME280;44660;42.664;23.266;2023-02-07T09:11:49;95957.41;;;8.54;28.77
58879;BME280;44660;42.664;23.266;2023-02-07T09:14:15;95959.16;;;8.11;28.88
58879;BME280;44660;42.664;23.266;2023-02-07T09:16:40;95946.47;;;8.07;29.16
58879;BME280;44660;42.664;23.266;2023-02-07T09:19:06;95954.94;;;7.45;29.80
58879;BME280;44660;42.664;23.266;2023-02-07T09:21:32;95952.34;;;6.64;30.67
58879;BME280;44660;42.664;23.266;2023-02-07T09:23:57;95959.28;;;6.65;31.34
58879;BME280;44660;42.664;23.266;2023-02-07T09:26:23;95954.03;;;7.38;30.36
58879;BME280;44660;42.664;23.266;2023-02-07T09:28:52;95959.03;;;7.48;29.92
58879;BME280;44660;42.664;23.266;2023-02-07T09:31:17;95962.25;;;6.92;30.70
58879;BME280;44660;42.664;23.266;2023-02-07T09:33:43;95935.47;;;6.05;32.00
58879;BME280;44660;42.664;23.266;2023-02-07T09:36:24;95957.06;;;5.47;32.82
58879;BME280;44660;42.664;23.266;2023-02-07T09:38:50;95962.06;;;5.11;33.26
58879;BME280;44660;42.664;23.266;2023-02-07T09:41:26;95945.41;;;4.47;33.96
58879;BME280;44660;42.664;23.266;2023-02-07T09:46:34;95964.28;;;3.86;36.23
58879;BME280;44660;42.664;23.266;2023-02-07T09:49:08;95950.81;;;3.48;37.84
58879;BME280;44660;42.664;23.266;2023-02-07T09:51:36;95942.09;;;5.16;36.24
58879;BME280;44660;42.664;23.266;2023-02-07T09:54:09;95941.56;;;5.21;34.69
58879;BME280;44660;42.664;23.266;2023-02-07T09:56:36;95948.66;;;5.20;34.88
58879;BME280;44660;42.664;23.266;2023-02-07T10:01:43;95942.16;;;4.37;35.24
58879;BME280;44660;42.664;23.266;2023-02-07T10:06:49;95844.94;;;4.50;34.83
58879;BME280;44660;42.664;23.266;2023-02-07T10:09:26;95916.63;;;7.05;31.95
58879;BME280;44660;42.664;23.266;2023-02-07T10:30:51;95866.31;;;5.33;34.37
58879;BME280;44660;42.664;23.266;2023-02-07T10:33:21;95881.09;;;5.19;34.83
58879;BME280;44660;42.664;23.266;2023-02-07T10:35:48;95904.53;;;5.14;35.50
58879;BME280;44660;42.664;23.266;2023-02-07T10:38:48;95906.97;;;4.93;35.68
58879;BME280;44660;42.664;23.266;2023-02-07T10:41:32;95902.72;;;4.83;35.96
58879;BME280;44660;42.664;23.266;2023-02-07T10:43:58;95877.53;;;4.18;35.84
58879;BME280;44660;42.664;23.266;2023-02-07T10:46:24;95906.34;;;5.60;34.75
58879;BME280;44660;42.664;23.266;2023-02-07T10:48:49;95894.34;;;6.11;33.92
58879;BME280;44660;42.664;23.266;2023-02-07T10:53:49;95888.94;;;6.04;34.08
58879;BME280;44660;42.664;23.266;2023-02-07T10:56:21;95813.19;;;5.36;34.35
58879;BME280;44660;42.664;23.266;2023-02-07T10:58:47;95885.56;;;6.10;34.40
58879;BME280;44660;42.664;23.266;2023-02-07T11:01:24;95869.09;;;5.55;35.19
58879;BME280;44660;42.664;23.266;2023-02-07T11:03:51;95851.38;;;5.79;34.36
58879;BME280;44660;42.664;23.266;2023-02-07T11:11:35;95862.91;;;7.04;32.17
58879;BME280;44660;42.664;23.266;2023-02-07T11:14:04;95799.59;;;6.96;31.01
58879;BME280;44660;42.664;23.266;2023-02-07T11:16:30;95841.06;;;7.17;30.15
58879;BME280;44660;42.664;23.266;2023-02-07T11:19:05;95844.53;;;6.96;30.40
58879;BME280;44660;42.664;23.266;2023-02-07T11:21:39;95851.19;;;7.13;32.04
58879;BME280;44660;42.664;23.266;2023-02-07T11:24:38;95819.91;;;7.17;31.22
58879;BME280;44660;42.664;23.266;2023-02-07T11:27:16;95854.81;;;6.69;30.87
58879;BME280;44660;42.664;23.266;2023-02-07T11:29:49;95830.00;;;5.88;31.60
58879;BME280;44660;42.664;23.266;2023-02-07T11:32:16;95867.00;;;5.50;32.72
58879;BME280;44660;42.664;23.266;2023-02-07T11:34:51;95787.22;;;5.10;33.24
58879;BME280;44660;42.664;23.266;2023-02-07T11:37:21;95850.22;;;5.43;33.35
58879;BME280;44660;42.664;23.266;2023-02-07T11:39:47;95845.38;;;5.32;33.81
58879;BME280;44660;42.664;23.266;2023-02-07T11:42:18;95844.75;;;4.52;35.38
58879;BME280;44660;42.664;23.266;2023-02-07T11:44:45;95849.97;;;4.37;35.49
58879;BME280;44660;42.664;23.266;2023-02-07T11:47:18;95850.94;;;3.96;36.64
58879;BME280;44660;42.664;23.266;2023-02-07T11:49:49;95793.84;;;3.40;37.21
58879;BME280;44660;42.664;23.266;2023-02-07T11:52:15;95831.50;;;3.33;37.72
58879;BME280;44660;42.664;23.266;2023-02-07T11:54:48;95843.31;;;3.29;37.43
58879;BME280;44660;42.664;23.266;2023-02-07T11:57:15;95814.25;;;2.81;38.02
58879;BME280;44660;42.664;23.266;2023-02-07T12:00:33;95836.78;;;3.00;38.22
58879;BME280;44660;42.664;23.266;2023-02-07T12:02:35;95831.31;;;2.68;38.27
58879;BME280;44660;42.664;23.266;2023-02-07T12:05:19;95842.16;;;2.82;38.51
58879;BME280;44660;42.664;23.266;2023-02-07T12:07:51;95811.91;;;2.61;38.49
58879;BME280;44660;42.664;23.266;2023-02-07T12:10:22;95793.03;;;2.57;38.56
58879;BME280;44660;42.664;23.266;2023-02-07T12:13:11;95837.41;;;2.77;38.34
58879;BME280;44660;42.664;23.266;2023-02-07T12:23:52;95796.16;;;2.02;39.85
58879;BME280;44660;42.664;23.266;2023-02-07T12:26:23;95843.28;;;2.11;39.98
58879;BME280;44660;42.664;23.266;2023-02-07T12:34:31;95834.63;;;2.19;39.36
58879;BME280;44660;42.664;23.266;2023-02-07T12:37:13;95831.06;;;2.37;39.46
58879;BME280;44660;42.664;23.266;2023-02-07T12:39:49;95829.66;;;2.08;40.24
58879;BME280;44660;42.664;23.266;2023-02-07T12:42:29;95796.69;;;2.05;40.82
58879;BME280;44660;42.664;23.266;2023-02-07T12:44:59;95814.13;;;2.23;41.15
58879;BME280;44660;42.664;23.266;2023-02-07T12:48:30;95811.03;;;2.27;39.86
58879;BME280;44660;42.664;23.266;2023-02-07T12:50:57;95793.25;;;2.05;40.48
58879;BME280;44660;42.664;23.266;2023-02-07T12:54:10;95830.16;;;2.03;40.20
58879;BME280;44660;42.664;23.266;2023-02-07T13:12:47;95839.63;;;1.96;40.96
58879;BME280;44660;42.664;23.266;2023-02-07T13:15:29;95804.94;;;1.76;41.32
58879;BME280;44660;42.664;23.266;2023-02-07T13:18:13;95828.78;;;1.99;40.80
58879;BME280;44660;42.664;23.266;2023-02-07T13:23:27;95828.50;;;2.02;40.38
58879;BME280;44660;42.664;23.266;2023-02-07T13:26:19;95829.28;;;1.94;40.79
58879;BME280;44660;42.664;23.266;2023-02-07T13:29:05;95823.09;;;2.12;40.20
58879;BME280;44660;42.664;23.266;2023-02-07T13:31:40;95819.94;;;2.43;39.91
58879;BME280;44660;42.664;23.266;2023-02-07T13:34:16;95827.84;;;2.59;39.59
58879;BME280;44660;42.664;23.266;2023-02-07T13:36:45;95802.81;;;2.31;39.56
58879;BME280;44660;42.664;23.266;2023-02-07T13:44:54;95824.38;;;2.00;40.44
58879;BME280;44660;42.664;23.266;2023-02-07T13:53:02;95835.88;;;2.07;40.93
58879;BME280;44660;42.664;23.266;2023-02-07T13:55:36;95801.69;;;1.82;41.03
58879;BME280;44660;42.664;23.266;2023-02-07T13:58:03;95831.59;;;1.98;40.90
58879;BME280;44660;42.664;23.266;2023-02-07T14:03:21;95794.72;;;1.65;40.92
58879;BME280;44660;42.664;23.266;2023-02-07T14:05:48;95805.88;;;1.67;40.50
58879;BME280;44660;42.664;23.266;2023-02-07T14:10:50;95785.69;;;1.33;40.36
58879;BME280;44660;42.664;23.266;2023-02-07T14:16:41;95753.59;;;1.04;41.61
58879;BME280;44660;42.664;23.266;2023-02-07T14:18:51;95776.44;;;1.20;41.54
58879;BME280;44660;42.664;23.266;2023-02-07T14:21:24;95831.41;;;1.38;41.65
58879;BME280;44660;42.664;23.266;2023-02-07T14:31:50;95823.19;;;1.33;41.91
58879;BME280;44660;42.664;23.266;2023-02-07T14:34:19;95803.25;;;0.88;42.08
58879;BME280;44660;42.664;23.266;2023-02-07T14:36:49;95812.09;;;1.13;42.12
58879;BME280;44660;42.664;23.266;2023-02-07T14:41:45;95833.44;;;1.00;42.59
58879;BME280;44660;42.664;23.266;2023-02-07T14:46:51;95804.81;;;0.62;43.53
58879;BME280;44660;42.664;23.266;2023-02-07T14:49:21;95826.94;;;0.86;43.82
58879;BME280;44660;42.664;23.266;2023-02-07T14:51:51;95836.81;;;0.92;43.65
58879;BME280;44660;42.664;23.266;2023-02-07T14:54:43;95824.72;;;0.55;43.92
58879;BME280;44660;42.664;23.266;2023-02-07T14:58:06;95839.28;;;0.58;43.80
58879;BME280;44660;42.664;23.266;2023-02-07T15:07:46;95836.53;;;0.13;45.52
58879;BME280;44660;42.664;23.266;2023-02-07T15:10:22;95810.22;;;-0.13;45.91
58879;BME280;44660;42.664;23.266;2023-02-07T15:12:50;95844.91;;;-0.11;46.07
58879;BME280;44660;42.664;23.266;2023-02-07T15:15:23;95849.28;;;-0.02;46.22
58879;BME280;44660;42.664;23.266;2023-02-07T15:17:51;95835.03;;;-0.17;46.53
58879;BME280;44660;42.664;23.266;2023-02-07T15:20:25;95843.25;;;-0.12;46.82
58879;BME280;44660;42.664;23.266;2023-02-07T15:22:53;95825.44;;;-0.26;46.80
58879;BME280;44660;42.664;23.266;2023-02-07T15:25:19;95836.56;;;-0.24;46.88
58879;BME280;44660;42.664;23.266;2023-02-07T15:28:22;95852.38;;;-0.16;47.12
58879;BME280;44660;42.664;23.266;2023-02-07T15:31:02;95841.53;;;-0.21;47.07
58879;BME280;44660;42.664;23.266;2023-02-07T15:33:32;95752.19;;;-0.82;47.21
58879;BME280;44660;42.664;23.266;2023-02-07T15:36:05;95855.97;;;-0.27;47.90